createdAt,value
2018-01-07T20:28:00.988Z,33.60
2018-01-07T20:32:50.153Z,25.93
2018-01-07T20:35:19.244Z,33.33
2018-01-07T20:37:48.046Z,32.20
2018-01-07T20:40:16.747Z,28.10
2018-01-07T20:42:46.408Z,32.30
2018-01-07T20:45:15.271Z,24.50
2018-01-07T20:47:43.957Z,34.17
2018-01-07T20:50:14.329Z,26.53
2018-01-07T20:52:42.995Z,23.37
2018-01-07T20:55:11.730Z,24.37
2018-01-07T20:57:40.454Z,25.93
2018-01-07T21:00:09.118Z,27.13
2018-01-07T21:02:38.026Z,26.50
2018-01-07T21:05:06.905Z,25.00
2018-01-07T21:07:35.568Z,21.30
2018-01-07T21:10:06.087Z,25.33
2018-01-07T21:12:34.722Z,34.60
2018-01-07T21:15:05.297Z,18.13
2018-01-07T21:17:33.893Z,19.67
2018-01-07T21:20:02.645Z,22.33
2018-01-07T21:22:32.367Z,19.60
2018-01-07T21:25:01.453Z,20.03
2018-01-07T21:27:30.548Z,21.07
2018-01-07T21:29:59.350Z,28.87
2018-01-07T21:32:28.167Z,21.80
2018-01-07T21:34:57.566Z,24.33
2018-01-07T21:37:26.254Z,17.60
2018-01-07T21:39:55.631Z,26.03
2018-01-07T21:42:24.491Z,22.37
2018-01-07T21:44:55.213Z,15.97
2018-01-07T21:47:23.865Z,16.17
2018-01-07T21:49:52.521Z,20.60
2018-01-07T21:52:21.957Z,13.37
2018-01-07T21:54:50.621Z,23.73
2018-01-07T21:57:21.307Z,18.73
2018-01-07T21:59:59.654Z,16.63
2018-01-07T22:02:29.611Z,18.17
2018-01-07T22:05:00.182Z,16.37
2018-01-07T22:07:38.439Z,17.50
2018-01-07T22:10:07.218Z,19.53
2018-01-07T22:12:36.250Z,15.53
2018-01-07T22:15:05.760Z,13.10
2018-01-07T22:17:34.394Z,18.87
2018-01-07T22:20:03.055Z,20.03
2018-01-07T22:22:31.852Z,16.93
2018-01-07T22:25:00.534Z,13.67
2018-01-07T22:27:30.166Z,19.07
2018-01-07T22:29:58.902Z,19.87
2018-01-07T22:32:27.656Z,13.77
2018-01-07T22:34:56.462Z,18.80
2018-01-07T22:37:25.285Z,16.93
2018-01-07T22:39:54.814Z,13.93
2018-01-07T22:42:23.586Z,18.23
2018-01-07T22:44:52.269Z,15.27
2018-01-07T22:47:26.372Z,12.73
2018-01-07T22:49:55.749Z,10.50
2018-01-07T22:52:24.542Z,12.83
2018-01-07T22:54:53.417Z,14.87
2018-01-07T22:57:22.286Z,17.00
2018-01-07T22:59:50.933Z,13.80
2018-01-07T23:02:21.026Z,14.30
